Palmdale, CA (93599)

1:14 PM PDT on April 24, 2017 (GMT -0700)
South of Medical Center | | Change Station
Active Advisory: Wind Advisory Active Notice: Public Information Statement

Elev 2799 ft 34.58 °N, 118.14 °W | Updated 4 minutes ago

Clear
Clear
71.3 °F
Feels Like 76 °F
N
7.8
Wind Variable Wind from North

Today
High -- | Low -- °F
--% Chance of Precip.
Yesterday
High -- | Low -- °F
Precip. -- in
Pressure 29.88 in
Visibility 10.0 miles
Clouds Clear
Heat Index 76 °F
Dew Point 34 °F
Humidity 26%
Rainfall 0.00 in
Snow Depth Not available.
6:09 AM 7:31 PM
Waning Crescent, 4% visible
METAR KPMD 241953Z AUTO 31027G35KT 10SM CLR 21/M03 A2993 RMK AO2 PK WND 30036/1930 SLP118 T02111028
Pressure 29.88 in
Visibility 10.0 miles
Clouds Clear
Heat Index 76 °F
Dew Point 34 °F
Humidity 26%
Rainfall 0.00 in
Snow Depth Not available.
6:09 AM 7:31 PM
Waning Crescent, 4% visible
METAR KPMD 241953Z AUTO 31027G35KT 10SM CLR 21/M03 A2993 RMK AO2 PK WND 30036/1930 SLP118 T02111028

Get Your Daily Forecast Email!

Thanks for signing up!

Be on the lookout for a verification email in your inbox.

You'll start receiving severe weather alerts in your inbox..

×

10-Day Weather Forecast

Almanac

Astronomy

Apr. 24, 2017 Rise Set
Actual Time
Civil Twilight
Nautical Twilight
Astronomical Twilight
Moon
Length of Visible Light
Length of Day
Tomorrow will be .
, % of the Moon is Illuminated

Today's Extremes

State Highs State Lows

Community

WunderPhotos

WunderBlog® & News

Nearby

Air Quality

  Air Quality AQ Index Pollutant
Not available.

Snow Depth

Station Depth Elevation

Earthquake Activity

City Distance Mag. Time & Date
Minimum magnitude displayed is 2.5.

Coastal Water Temperatures

Place Temperature

Stations

Nearby Weather Stations

Station Location Temp. Windchill Dew Point Humidity Wind Precip. Elev Updated Type
                   

Watches & Warnings

Wind Advisory
Issued: 6:01 AM PDT Apr. 24, 2017 – National Weather Service

... Wind Advisory remains in effect until 3 am PDT Wednesday...

* winds... areas of northwest to north winds 20 to 35 mph with
gusts between 45 and 55 mph. The strongest winds will be
through the Interstate 5 corridor. In the Antelope Valley the
strongest winds will be in the northwest portion of the
valley. Winds will be strongest during the night and morning
hours.

* Impacts... .gusty winds will make driving difficult, especially
for high profile vehicles along Interstate 5 and Highway 14.

Precautionary/preparedness actions...

When driving, use extra caution. Be prepared for sudden gusty
cross winds.



Ck/db